Edwall, WA (99008)

3:15 PM PST on February 10, 2016 (GMT -0800)
In town | | Change Station
CLOSE
Current Station
Personal Weather Station
Location: Medical Lake, WA
Elevation: 2421 ft
Nearby Weather Stations

Elev 2421 ft 47.58 °N, 117.69 °W | Updated 12 minutes ago

Mostly Cloudy
Mostly Cloudy
45.0 °F
Feels Like 45 °F
N
2.7
Wind Variable Wind from ESE

Today
High -- | Low -- °F
--% Chance of Precip.
Yesterday
High -- | Low -- °F
Precip. -- in
Pressure 30.28 in
Visibility 10.0 miles
Clouds Overcast 11000 ft
Windchill 45 °F
Dew Point 40 °F
Humidity 83%
Rainfall 0.00 in
Snow Depth Not available.
7:05 AM 5:06 PM
Waxing Crescent, 8% visible
METAR KSKA 102258Z AUTO 03003KT 10SM OVC110 05/03 A3022 RMK AO2 SLP254 T00500032 PWINO $
Pressure 30.28 in
Visibility 10.0 miles
Clouds Overcast 11000 ft
Windchill 45 °F
Dew Point 40 °F
Humidity 83%
Rainfall 0.00 in
Snow Depth Not available.
7:05 AM 5:06 PM
Waxing Crescent, 8% visible
METAR KSKA 102258Z AUTO 03003KT 10SM OVC110 05/03 A3022 RMK AO2 SLP254 T00500032 PWINO $

10-Day Weather Forecast

Almanac

Astronomy

Feb. 10, 2016 Rise Set
Actual Time
Civil Twilight
Nautical Twilight
Astronomical Twilight
Moon
Length of Visible Light
Length of Day
Tomorrow will be .
, % of the Moon is Illuminated

Today's Extremes

State Highs State Lows

Community

WunderPhotos

Upload Photos

1,891,933 photos uploaded!

WunderBlog® & News

Nearby

Air Quality

  Air Quality AQ Index Pollutant
Not available.

Snow Depth

Station Depth Elevation

Earthquake Activity

City Distance Mag. Time & Date
Minimum magnitude displayed is 2.5.

Coastal Water Temperatures

Place Temperature

Stations

Nearby Weather Stations

Station Location Temp. Windchill Dew Point Humidity Wind Precip. Elev Updated Type
                   

Watches & Warnings

There are currently no watches in effect.